createdAt,value
2022-10-21T00:00:39.830Z,0.00
2022-10-21T00:02:40.213Z,0.00
2022-10-21T00:03:39.781Z,0.00
2022-10-21T00:04:39.771Z,0.00
2022-10-21T00:05:39.761Z,0.00
2022-10-21T00:06:39.769Z,0.00
2022-10-21T00:07:39.744Z,0.00
2022-10-21T00:08:39.768Z,0.00
2022-10-21T00:09:39.703Z,0.00
2022-10-21T00:10:39.695Z,0.00
2022-10-21T00:11:39.704Z,0.00
2022-10-21T00:12:40.006Z,0.00
2022-10-21T00:13:39.691Z,0.00
2022-10-21T00:14:39.642Z,0.00
2022-10-21T00:15:39.626Z,0.00
2022-10-21T00:16:39.644Z,0.00
2022-10-21T00:17:39.608Z,0.00
2022-10-21T00:18:39.605Z,0.00
2022-10-21T00:19:39.571Z,0.00
2022-10-21T00:20:39.832Z,0.00
2022-10-21T00:21:39.553Z,0.00
2022-10-21T00:22:39.728Z,0.00
2022-10-21T00:23:39.525Z,0.00
2022-10-21T00:24:39.516Z,0.00
2022-10-21T00:25:39.501Z,0.00
2022-10-21T00:26:39.498Z,0.00
2022-10-21T00:27:39.686Z,0.00
2022-10-21T00:28:39.473Z,0.00
2022-10-21T00:29:39.447Z,0.00
2022-10-21T00:30:39.437Z,0.00
2022-10-21T00:31:39.439Z,0.00
2022-10-21T00:32:39.814Z,0.00
2022-10-21T00:33:39.402Z,0.00
2022-10-21T00:34:39.399Z,0.00
2022-10-21T00:35:39.365Z,0.00
2022-10-21T00:36:39.368Z,0.00
2022-10-21T00:37:39.632Z,0.00
2022-10-21T00:38:39.337Z,0.00
2022-10-21T00:39:39.320Z,0.00
2022-10-21T00:40:39.309Z,0.00
2022-10-21T00:41:39.296Z,0.00
2022-10-21T00:42:42.172Z,0.00
2022-10-21T00:43:40.278Z,0.00
2022-10-21T00:44:39.265Z,0.00
2022-10-21T00:45:39.241Z,0.00
2022-10-21T00:46:39.237Z,0.00
2022-10-21T00:47:39.274Z,0.00
2022-10-21T00:48:39.207Z,0.00
2022-10-21T00:49:39.188Z,0.00
2022-10-21T00:50:41.788Z,0.00
2022-10-21T00:51:39.167Z,0.00
2022-10-21T00:52:39.529Z,0.00
2022-10-21T00:53:39.140Z,0.00
2022-10-21T00:54:39.157Z,0.00
2022-10-21T00:55:39.109Z,0.00
2022-10-21T00:56:39.157Z,0.00
2022-10-21T00:57:39.489Z,0.00
2022-10-21T00:58:39.084Z,0.00
2022-10-21T00:59:39.058Z,0.00
2022-10-21T01:00:39.110Z,0.00
2022-10-21T01:01:39.101Z,0.00
2022-10-21T01:02:39.020Z,0.00
2022-10-21T01:03:39.009Z,0.00
2022-10-21T01:04:39.000Z,0.00
2022-10-21T01:05:39.048Z,0.00
2022-10-21T01:06:38.980Z,0.00
2022-10-21T01:07:41.186Z,0.00
2022-10-21T01:08:38.995Z,0.00
2022-10-21T01:09:38.939Z,0.00
2022-10-21T01:10:38.914Z,0.00
2022-10-21T01:11:38.901Z,0.00
2022-10-21T01:12:38.903Z,0.00
2022-10-21T01:13:38.875Z,0.00
2022-10-21T01:14:38.871Z,0.00
2022-10-21T01:15:38.846Z,0.00
2022-10-21T01:16:38.855Z,0.00
2022-10-21T01:17:44.925Z,0.00
2022-10-21T01:18:39.812Z,0.00
2022-10-21T01:19:38.812Z,0.00
2022-10-21T01:20:38.781Z,0.00
2022-10-21T01:21:38.796Z,0.00
2022-10-21T01:22:38.781Z,0.00
2022-10-21T01:23:38.761Z,0.00
2022-10-21T01:24:38.723Z,0.00
2022-10-21T01:25:38.724Z,0.00
2022-10-21T01:26:38.725Z,0.00
2022-10-21T01:27:38.978Z,0.00
2022-10-21T01:28:38.694Z,0.00
2022-10-21T01:29:38.669Z,0.00
2022-10-21T01:30:38.673Z,0.00
2022-10-21T01:31:38.643Z,0.00
2022-10-21T01:32:39.625Z,0.00
2022-10-21T01:33:38.621Z,0.00
2022-10-21T01:34:38.606Z,0.00
2022-10-21T01:35:38.603Z,0.00
2022-10-21T01:36:38.585Z,0.00
2022-10-21T01:37:38.813Z,0.00
2022-10-21T01:38:38.545Z,0.00
2022-10-21T01:39:38.526Z,0.00
2022-10-21T01:40:38.525Z,0.00
2022-10-21T01:41:38.540Z,0.00
2022-10-21T01:42:39.801Z,0.00
2022-10-21T01:43:38.497Z,0.00
2022-10-21T01:44:38.476Z,0.00
2022-10-21T01:45:38.490Z,0.00
2022-10-21T01:46:38.472Z,0.00
2022-10-21T01:47:39.432Z,0.00
2022-10-21T01:48:59.436Z,0.00
2022-10-21T01:49:38.416Z,0.00
2022-10-21T01:50:38.399Z,0.00
2022-10-21T01:51:38.391Z,0.00
2022-10-21T01:52:39.674Z,0.00
2022-10-21T01:53:38.370Z,0.00
2022-10-21T01:54:38.348Z,0.00
2022-10-21T01:55:38.328Z,0.00
2022-10-21T01:56:38.334Z,0.00
2022-10-21T01:57:39.299Z,0.00
2022-10-21T01:58:38.289Z,0.00
2022-10-21T01:59:38.289Z,0.00
2022-10-21T02:00:38.326Z,0.00
2022-10-21T02:01:39.262Z,0.00
2022-10-21T02:02:39.594Z,0.00
2022-10-21T02:03:38.234Z,0.00
2022-10-21T02:04:38.201Z,0.00
2022-10-21T02:05:38.271Z,0.00
2022-10-21T02:06:38.210Z,0.00
2022-10-21T02:07:38.172Z,0.00
2022-10-21T02:08:38.239Z,0.00
2022-10-21T02:09:38.220Z,0.00
2022-10-21T02:10:38.200Z,0.00
2022-10-21T02:11:38.139Z,0.00
2022-10-21T02:12:38.427Z,0.00
2022-10-21T02:13:38.121Z,0.00
2022-10-21T02:14:38.121Z,0.00
2022-10-21T02:15:38.142Z,0.00
2022-10-21T02:16:38.071Z,0.00
2022-10-21T02:17:38.042Z,0.00
2022-10-21T02:18:38.055Z,0.00
2022-10-21T02:19:38.067Z,0.00
2022-10-21T02:20:38.072Z,0.00
2022-10-21T02:21:38.149Z,0.00
2022-10-21T02:22:38.248Z,0.00
2022-10-21T02:23:39.026Z,0.00
2022-10-21T02:24:37.991Z,0.00
2022-10-21T02:25:38.004Z,0.00
2022-10-21T02:26:38.046Z,0.00
2022-10-21T02:27:37.903Z,0.00
2022-10-21T02:28:37.914Z,0.00
2022-10-21T02:30:48.098Z,0.00
2022-10-21T02:31:48.208Z,0.00
2022-10-21T02:32:48.069Z,0.00
2022-10-21T02:33:48.070Z,0.00
2022-10-21T02:34:48.090Z,0.00
2022-10-21T02:35:48.041Z,0.00
2022-10-21T02:36:48.049Z,0.00
2022-10-21T02:37:48.110Z,0.00
2022-10-21T02:38:48.033Z,0.00
2022-10-21T02:39:48.019Z,0.00
2022-10-21T02:40:48.031Z,0.00
2022-10-21T02:41:48.081Z,0.00
2022-10-21T02:42:47.949Z,0.00
2022-10-21T02:43:47.931Z,0.00
2022-10-21T02:44:47.965Z,0.00
2022-10-21T02:45:47.963Z,0.00
2022-10-21T02:46:47.894Z,0.00
2022-10-21T02:47:47.973Z,0.00
2022-10-21T02:48:47.850Z,0.00
2022-10-21T02:49:55.358Z,0.00
2022-10-21T02:53:07.097Z,0.00
2022-10-21T02:54:14.592Z,0.00
2022-10-21T02:55:14.578Z,0.00
2022-10-21T02:56:17.809Z,0.00
2022-10-21T02:57:14.554Z,0.00
2022-10-21T02:58:07.046Z,0.00
2022-10-21T02:59:14.525Z,0.00
2022-10-21T03:00:14.526Z,0.00
2022-10-21T03:01:15.776Z,0.00
2022-10-21T03:02:14.503Z,0.00
2022-10-21T03:03:14.473Z,0.00
2022-10-21T03:04:06.959Z,0.00
2022-10-21T03:05:14.449Z,0.00
2022-10-21T03:06:15.625Z,0.00
2022-10-21T03:07:14.433Z,0.00
2022-10-21T03:08:14.428Z,0.00
2022-10-21T03:09:06.913Z,0.00
2022-10-21T03:11:17.122Z,0.00
2022-10-21T03:12:17.132Z,0.00
2022-10-21T03:13:17.139Z,0.00
2022-10-21T03:14:17.072Z,0.00
2022-10-21T03:15:39.172Z,0.00
2022-10-21T03:16:20.074Z,0.00
2022-10-21T03:17:20.466Z,0.00
2022-10-21T03:18:18.112Z,0.00
2022-10-21T03:19:17.072Z,0.00
2022-10-21T03:20:17.085Z,0.00
2022-10-21T03:21:17.094Z,0.00
2022-10-21T03:22:17.063Z,0.00
2022-10-21T03:23:17.034Z,0.00
2022-10-21T03:24:28.056Z,0.00
2022-10-21T03:25:17.934Z,0.00
2022-10-21T03:26:17.024Z,0.00
2022-10-21T03:27:16.973Z,0.00
2022-10-21T03:28:16.952Z,0.00
2022-10-21T03:29:16.945Z,0.00
2022-10-21T03:30:16.875Z,0.00
2022-10-21T03:31:16.954Z,0.00
2022-10-21T03:32:19.120Z,0.00
2022-10-21T03:33:16.896Z,0.00
2022-10-21T03:34:16.874Z,0.00
2022-10-21T03:35:16.817Z,0.00
2022-10-21T03:36:16.888Z,0.00
2022-10-21T03:37:16.812Z,0.00
2022-10-21T03:38:17.849Z,0.00
2022-10-21T03:39:16.795Z,0.00
2022-10-21T03:40:16.807Z,0.00
2022-10-21T03:41:16.822Z,0.00
2022-10-21T03:42:16.742Z,0.00
2022-10-21T03:43:16.707Z,0.00
2022-10-21T03:44:16.739Z,0.00
2022-10-21T03:45:16.739Z,0.00
2022-10-21T03:46:16.671Z,0.00
2022-10-21T03:47:16.666Z,0.00
2022-10-21T03:48:16.637Z,0.00
2022-10-21T03:49:21.168Z,0.00
2022-10-21T04:03:15.657Z,0.00
2022-10-21T04:04:15.630Z,0.00
2022-10-21T04:05:15.608Z,0.00
2022-10-21T04:06:15.608Z,0.00
2022-10-21T04:07:15.601Z,0.00
2022-10-21T04:08:15.581Z,0.00
2022-10-21T04:09:15.608Z,0.00
2022-10-21T04:10:15.543Z,0.00
2022-10-21T04:11:15.531Z,0.00
2022-10-21T04:12:15.537Z,0.00
2022-10-21T04:13:15.509Z,0.00
2022-10-21T04:14:15.695Z,0.00
2022-10-21T04:15:15.470Z,0.00
2022-10-21T04:16:15.474Z,0.00
2022-10-21T04:17:24.146Z,0.00
2022-10-21T04:18:15.435Z,0.00
2022-10-21T04:19:15.425Z,0.00
2022-10-21T04:20:15.406Z,0.00
2022-10-21T04:21:15.460Z,0.00
2022-10-21T04:22:15.406Z,0.00
2022-10-21T04:23:15.378Z,0.00
2022-10-21T04:24:15.355Z,0.00
2022-10-21T04:25:15.347Z,0.00
2022-10-21T04:26:15.338Z,0.00
2022-10-21T04:27:15.328Z,0.00
2022-10-21T04:28:15.319Z,0.00
2022-10-21T04:29:15.330Z,0.00
2022-10-21T04:30:15.274Z,0.00
2022-10-21T04:31:15.276Z,0.00
2022-10-21T04:32:15.249Z,0.00
2022-10-21T04:33:15.264Z,0.00
2022-10-21T04:34:15.223Z,0.00
2022-10-21T04:35:16.218Z,0.00
2022-10-21T04:36:15.199Z,0.00
2022-10-21T04:37:15.197Z,0.00
2022-10-21T04:38:15.189Z,0.00
2022-10-21T04:39:15.178Z,0.00
2022-10-21T04:40:15.151Z,0.00
2022-10-21T04:41:15.128Z,0.00
2022-10-21T04:42:15.233Z,0.00
2022-10-21T04:43:15.150Z,0.00
2022-10-21T04:44:15.098Z,0.00
2022-10-21T04:45:15.089Z,0.00
2022-10-21T04:46:15.068Z,0.00
2022-10-21T04:47:15.060Z,0.00
2022-10-21T04:48:15.054Z,0.00
2022-10-21T04:49:15.039Z,0.00
2022-10-21T04:50:15.018Z,0.00
2022-10-21T04:51:15.019Z,0.00
2022-10-21T04:52:15.001Z,0.00
2022-10-21T04:53:14.991Z,0.00
2022-10-21T04:54:14.973Z,0.00
2022-10-21T04:55:14.962Z,0.00
2022-10-21T04:56:14.945Z,0.00
2022-10-21T04:57:14.932Z,0.00
2022-10-21T04:58:18.284Z,0.00
2022-10-21T04:59:15.972Z,0.00
2022-10-21T05:00:14.881Z,0.00
2022-10-21T05:01:14.960Z,0.00
2022-10-21T05:02:14.877Z,0.00
2022-10-21T05:03:14.851Z,0.00
2022-10-21T05:04:14.854Z,0.00
2022-10-21T05:05:14.834Z,0.00
2022-10-21T05:06:14.814Z,0.00
2022-10-21T05:07:14.803Z,0.00
2022-10-21T05:08:14.795Z,0.00
2022-10-21T05:09:14.863Z,0.00
2022-10-21T05:10:14.766Z,0.00
2022-10-21T05:11:14.746Z,0.00
2022-10-21T05:12:14.733Z,0.00
2022-10-21T05:13:14.719Z,0.00
2022-10-21T05:14:16.578Z,0.00
2022-10-21T05:15:14.704Z,0.00
2022-10-21T05:16:14.686Z,0.00
2022-10-21T05:17:14.666Z,0.00
2022-10-21T05:18:14.665Z,0.00
2022-10-21T05:19:14.654Z,0.00
2022-10-21T05:20:14.636Z,0.00
2022-10-21T05:21:14.621Z,0.00
2022-10-21T05:22:14.605Z,0.00
2022-10-21T05:23:14.596Z,0.00
2022-10-21T05:24:14.586Z,0.00
2022-10-21T05:25:14.565Z,0.00
2022-10-21T05:26:14.597Z,0.00
2022-10-21T05:27:14.537Z,0.00
2022-10-21T05:28:14.539Z,0.00
2022-10-21T05:29:14.526Z,0.00
2022-10-21T05:30:14.509Z,0.00
2022-10-21T05:31:14.488Z,0.00
2022-10-21T05:32:14.495Z,0.00
2022-10-21T05:33:14.457Z,0.00
2022-10-21T05:34:14.468Z,0.00
2022-10-21T05:35:14.457Z,0.00
2022-10-21T05:36:14.417Z,0.00
2022-10-21T05:37:14.408Z,0.00
2022-10-21T05:38:14.451Z,0.00
2022-10-21T05:39:14.400Z,0.00
2022-10-21T05:40:14.378Z,0.00
2022-10-21T05:41:14.358Z,0.00
2022-10-21T05:42:14.348Z,0.00
2022-10-21T05:43:14.337Z,0.00
2022-10-21T05:44:14.318Z,0.00
2022-10-21T05:45:14.425Z,0.00
2022-10-21T05:46:14.289Z,0.00
2022-10-21T05:47:14.282Z,0.00
2022-10-21T05:48:17.848Z,0.00
2022-10-21T05:49:14.261Z,0.00
2022-10-21T05:50:14.270Z,0.00
2022-10-21T05:51:14.228Z,0.00
2022-10-21T05:52:14.220Z,0.00
2022-10-21T05:53:14.224Z,0.00
2022-10-21T05:54:14.200Z,0.00
2022-10-21T05:55:14.191Z,0.00
2022-10-21T05:56:14.169Z,0.00
2022-10-21T05:57:14.162Z,0.00
2022-10-21T05:58:14.142Z,0.00
2022-10-21T05:59:14.122Z,0.00
2022-10-21T06:00:14.133Z,0.00
2022-10-21T06:01:14.159Z,0.00
2022-10-21T06:02:14.092Z,0.00
2022-10-21T06:03:14.099Z,0.00
2022-10-21T06:04:14.070Z,0.00
2022-10-21T06:05:14.062Z,0.00
2022-10-21T06:06:14.057Z,0.00
2022-10-21T06:07:14.020Z,0.00
2022-10-21T06:08:14.035Z,0.00
2022-10-21T06:09:14.065Z,0.00
2022-10-21T06:10:14.005Z,0.00
2022-10-21T06:11:13.972Z,0.00
2022-10-21T06:12:13.968Z,0.00
2022-10-21T06:13:13.963Z,0.00
2022-10-21T06:14:13.932Z,0.00
2022-10-21T06:15:13.944Z,0.00
2022-10-21T06:16:13.910Z,0.00
2022-10-21T06:17:13.894Z,5.62
2022-10-21T06:18:13.886Z,5.62
2022-10-21T06:19:13.869Z,5.62
2022-10-21T06:20:13.872Z,5.62
2022-10-21T06:21:13.836Z,5.62
2022-10-21T06:22:13.831Z,5.62
2022-10-21T06:23:13.835Z,5.62
2022-10-21T06:24:13.804Z,5.62
2022-10-21T06:25:13.838Z,5.62
2022-10-21T06:26:13.769Z,5.62
2022-10-21T06:27:13.772Z,5.62
2022-10-21T06:28:13.747Z,5.62
2022-10-21T06:29:13.754Z,5.62
2022-10-21T06:30:13.716Z,5.62
2022-10-21T06:31:13.705Z,5.62
2022-10-21T06:32:13.698Z,5.62
2022-10-21T06:33:13.681Z,5.62
2022-10-21T06:34:13.789Z,5.62
2022-10-21T06:35:13.648Z,5.62
2022-10-21T06:36:13.640Z,5.62
2022-10-21T06:37:13.630Z,5.62
2022-10-21T06:38:13.617Z,5.62
2022-10-21T06:39:13.597Z,5.62
2022-10-21T06:40:13.601Z,5.62
2022-10-21T06:41:13.839Z,5.62
2022-10-21T06:42:13.601Z,5.62
2022-10-21T06:43:13.646Z,5.62
2022-10-21T06:44:13.554Z,5.62
2022-10-21T06:45:13.528Z,5.62
2022-10-21T06:46:13.515Z,11.25
2022-10-21T06:47:13.496Z,11.25
2022-10-21T06:48:13.481Z,11.25
2022-10-21T06:49:13.487Z,11.25
2022-10-21T06:50:13.470Z,5.62
2022-10-21T06:51:13.441Z,5.62
2022-10-21T06:52:14.533Z,5.62
2022-10-21T06:53:13.416Z,5.62
2022-10-21T06:54:13.422Z,5.62
2022-10-21T06:55:13.400Z,5.62
2022-10-21T06:56:13.393Z,5.62
2022-10-21T06:57:13.383Z,5.62
2022-10-21T06:58:13.351Z,5.62
2022-10-21T06:59:13.351Z,5.62
2022-10-21T07:00:13.334Z,5.62
2022-10-21T07:01:27.383Z,5.62
2022-10-21T07:02:14.301Z,5.62
2022-10-21T07:03:13.292Z,5.62
2022-10-21T07:04:13.293Z,11.25
2022-10-21T07:05:13.262Z,11.25
2022-10-21T07:06:13.252Z,11.25
2022-10-21T07:07:13.233Z,11.25
2022-10-21T07:08:13.233Z,16.88
2022-10-21T07:09:13.265Z,16.88
2022-10-21T07:10:13.203Z,11.25
2022-10-21T07:11:13.202Z,11.25
2022-10-21T07:12:13.165Z,11.25
2022-10-21T07:13:13.155Z,11.25
2022-10-21T07:14:13.155Z,11.25
2022-10-21T07:15:13.143Z,11.25
2022-10-21T07:16:13.124Z,11.25
2022-10-21T07:17:13.104Z,11.25
2022-10-21T07:18:13.095Z,11.25
2022-10-21T07:19:13.088Z,11.25
2022-10-21T07:20:13.074Z,11.25
2022-10-21T07:21:13.063Z,16.88
2022-10-21T07:22:13.035Z,16.88
2022-10-21T07:23:13.035Z,16.88
2022-10-21T07:24:13.025Z,16.88
2022-10-21T07:25:13.008Z,16.88
2022-10-21T07:26:12.985Z,16.88
2022-10-21T07:27:12.976Z,16.88
2022-10-21T07:28:12.965Z,16.88
2022-10-21T07:29:12.946Z,16.88
2022-10-21T07:30:12.954Z,22.50
2022-10-21T07:31:12.916Z,22.50
2022-10-21T07:32:12.918Z,22.50
2022-10-21T07:33:12.897Z,22.50
2022-10-21T07:34:12.888Z,22.50
2022-10-21T07:35:12.890Z,22.50
2022-10-21T07:36:12.867Z,22.50
2022-10-21T07:37:12.837Z,22.50
2022-10-21T07:38:12.848Z,22.50
2022-10-21T07:39:12.816Z,22.50
2022-10-21T07:40:12.837Z,22.50
2022-10-21T07:41:12.788Z,28.12
2022-10-21T07:42:12.789Z,28.12
2022-10-21T07:44:12.756Z,22.50
2022-10-21T07:45:12.758Z,22.50
2022-10-21T07:46:12.743Z,22.50
2022-10-21T07:47:12.737Z,22.50
2022-10-21T07:48:12.700Z,22.50
2022-10-21T07:49:12.692Z,22.50
2022-10-21T07:50:12.694Z,22.50
2022-10-21T07:51:12.669Z,22.50
2022-10-21T07:52:12.670Z,28.12
2022-10-21T07:53:13.400Z,33.75
2022-10-21T07:54:12.629Z,39.38
2022-10-21T07:55:12.620Z,39.38
2022-10-21T07:56:12.616Z,45.00
2022-10-21T07:57:12.590Z,45.00
2022-10-21T07:58:12.583Z,45.00
2022-10-21T07:59:13.285Z,39.38
2022-10-21T08:00:12.561Z,33.75
2022-10-21T08:01:12.568Z,33.75
2022-10-21T08:02:12.522Z,33.75
2022-10-21T08:03:12.521Z,28.12
2022-10-21T08:04:12.499Z,33.75
2022-10-21T08:05:12.492Z,33.75
2022-10-21T08:06:12.461Z,33.75
2022-10-21T08:07:13.941Z,33.75
2022-10-21T08:08:12.455Z,39.38
2022-10-21T08:09:12.518Z,39.38
2022-10-21T08:10:12.440Z,45.00
2022-10-21T08:11:12.405Z,45.00
2022-10-21T08:12:14.505Z,45.00
2022-10-21T08:13:12.375Z,45.00
2022-10-21T08:14:12.363Z,45.00
2022-10-21T08:15:12.367Z,45.00
2022-10-21T08:16:12.371Z,45.00
2022-10-21T08:17:12.360Z,45.00
2022-10-21T08:18:12.306Z,50.62
2022-10-21T08:19:12.285Z,45.00
2022-10-21T08:20:12.307Z,50.62
2022-10-21T08:21:12.264Z,56.25
2022-10-21T08:22:12.255Z,56.25
2022-10-21T08:23:12.234Z,56.25
2022-10-21T08:24:12.224Z,61.88
2022-10-21T08:25:12.237Z,67.50
2022-10-21T08:26:12.219Z,67.50
2022-10-21T08:27:12.186Z,61.88
2022-10-21T08:28:12.177Z,67.50
2022-10-21T08:29:12.168Z,67.50
2022-10-21T08:30:12.167Z,61.88
2022-10-21T08:31:12.139Z,61.88
2022-10-21T08:32:12.116Z,61.88
2022-10-21T08:33:12.107Z,61.88
2022-10-21T08:34:12.097Z,61.88
2022-10-21T08:35:12.079Z,56.25
2022-10-21T08:36:12.085Z,45.00
2022-10-21T08:37:12.098Z,45.00
2022-10-21T08:38:12.061Z,39.38
2022-10-21T08:39:12.020Z,45.00
2022-10-21T08:40:12.017Z,45.00
2022-10-21T08:41:12.012Z,45.00
2022-10-21T08:42:12.006Z,45.00
2022-10-21T08:43:11.968Z,45.00
2022-10-21T08:44:11.984Z,45.00
2022-10-21T08:45:11.945Z,39.38
2022-10-21T08:46:11.959Z,39.38
2022-10-21T08:47:11.919Z,33.75
2022-10-21T08:48:11.903Z,33.75
2022-10-21T08:49:11.900Z,39.38
2022-10-21T08:50:11.881Z,39.38
2022-10-21T08:51:11.889Z,39.38
2022-10-21T08:52:11.851Z,33.75
2022-10-21T08:53:11.838Z,33.75
2022-10-21T08:54:11.832Z,33.75
2022-10-21T08:55:11.812Z,33.75
2022-10-21T08:56:14.603Z,33.75
2022-10-21T08:57:12.782Z,33.75
2022-10-21T08:58:15.296Z,33.75
2022-10-21T08:59:11.751Z,33.75
2022-10-21T09:00:11.754Z,33.75
2022-10-21T09:01:11.732Z,33.75
2022-10-21T09:02:11.730Z,28.12
2022-10-21T09:03:11.744Z,28.12
2022-10-21T09:04:11.693Z,28.12
2022-10-21T09:05:11.685Z,22.50
2022-10-21T09:06:11.672Z,22.50
2022-10-21T09:07:11.644Z,22.50
2022-10-21T09:08:11.656Z,22.50
2022-10-21T09:09:11.689Z,22.50
2022-10-21T09:10:11.613Z,22.50
2022-10-21T09:11:11.625Z,28.12
2022-10-21T09:12:11.584Z,28.12
2022-10-21T09:13:11.565Z,33.75
2022-10-21T09:14:11.558Z,33.75
2022-10-21T09:15:11.770Z,33.75
2022-10-21T09:16:11.539Z,33.75
2022-10-21T09:17:11.517Z,33.75
2022-10-21T09:18:11.535Z,33.75
2022-10-21T09:19:11.493Z,33.75
2022-10-21T09:20:11.475Z,39.38
2022-10-21T09:21:11.467Z,39.38
2022-10-21T09:22:33.619Z,33.75
2022-10-21T09:23:12.436Z,33.75
2022-10-21T09:24:11.427Z,39.38
2022-10-21T09:25:11.408Z,39.38
2022-10-21T09:26:11.397Z,39.38
2022-10-21T09:27:11.395Z,39.38
2022-10-21T09:28:11.368Z,39.38
2022-10-21T09:29:11.358Z,39.38
2022-10-21T09:30:11.340Z,39.38
2022-10-21T09:31:11.352Z,39.38
2022-10-21T09:32:11.311Z,39.38
2022-10-21T09:33:11.320Z,39.38
2022-10-21T09:34:11.297Z,39.38
2022-10-21T09:35:11.285Z,33.75
2022-10-21T09:36:11.284Z,33.75
2022-10-21T09:37:11.260Z,33.75
2022-10-21T09:38:11.231Z,33.75
2022-10-21T09:39:11.230Z,33.75
2022-10-21T09:40:11.228Z,33.75
2022-10-21T09:41:11.321Z,39.38
2022-10-21T09:42:13.529Z,39.38
2022-10-21T09:43:12.168Z,33.75
2022-10-21T09:44:11.230Z,28.12
2022-10-21T09:45:11.244Z,28.12
2022-10-21T09:46:11.154Z,33.75
2022-10-21T09:47:11.150Z,33.75
2022-10-21T10:03:19.445Z,56.25
2022-10-21T10:04:19.405Z,50.62
2022-10-21T10:05:19.404Z,45.00
2022-10-21T10:06:19.394Z,45.00
2022-10-21T10:07:19.376Z,45.00
2022-10-21T10:08:19.385Z,45.00
2022-10-21T10:09:19.406Z,50.62
2022-10-21T10:10:19.344Z,61.88
2022-10-21T10:11:19.367Z,61.88
2022-10-21T10:12:20.337Z,67.50
2022-10-21T10:13:19.308Z,61.88
2022-10-21T10:14:19.337Z,67.50
2022-10-21T10:15:19.355Z,73.12
2022-10-21T10:16:20.336Z,78.75
2022-10-21T10:17:19.360Z,78.75
2022-10-21T10:18:19.256Z,61.88
2022-10-21T10:19:19.376Z,45.00
2022-10-21T10:20:19.270Z,39.38
2022-10-21T10:21:19.317Z,45.00
2022-10-21T10:22:19.280Z,56.25
2022-10-21T10:23:19.187Z,78.75
2022-10-21T10:24:19.154Z,90.00
2022-10-21T10:25:19.162Z,84.38
2022-10-21T10:26:19.249Z,84.38
2022-10-21T10:27:19.220Z,84.38
2022-10-21T10:28:19.218Z,67.50
2022-10-21T10:29:19.107Z,61.88
2022-10-21T10:30:21.206Z,61.88
2022-10-21T10:31:19.284Z,56.25
2022-10-21T10:32:19.149Z,61.88
2022-10-21T10:33:19.151Z,67.50
2022-10-21T10:34:19.063Z,67.50
2022-10-21T10:35:19.077Z,67.50
2022-10-21T10:36:20.027Z,67.50
2022-10-21T10:37:19.094Z,61.88
2022-10-21T10:38:19.072Z,61.88
2022-10-21T10:39:18.992Z,56.25
2022-10-21T10:40:18.949Z,56.25
2022-10-21T10:41:18.940Z,56.25
2022-10-21T10:42:18.930Z,56.25
2022-10-21T10:43:18.918Z,56.25
2022-10-21T10:44:18.921Z,56.25
2022-10-21T10:45:18.891Z,56.25
2022-10-21T10:46:18.964Z,50.62
2022-10-21T10:47:18.952Z,56.25
2022-10-21T10:48:19.040Z,56.25
2022-10-21T10:49:18.862Z,50.62
2022-10-21T10:50:18.972Z,50.62
2022-10-21T10:51:18.901Z,50.62
2022-10-21T10:52:18.893Z,56.25
2022-10-21T10:53:18.791Z,56.25
2022-10-21T10:54:18.762Z,50.62
2022-10-21T10:55:18.772Z,50.62
2022-10-21T10:56:18.753Z,50.62
2022-10-21T10:57:18.818Z,45.00
2022-10-21T10:58:20.308Z,50.62
2022-10-21T10:59:18.724Z,45.00
2022-10-21T11:00:18.794Z,39.38
2022-10-21T11:01:19.013Z,39.38
2022-10-21T11:02:18.749Z,45.00
2022-10-21T11:03:20.908Z,39.38
2022-10-21T11:04:18.654Z,39.38
2022-10-21T11:05:18.671Z,45.00
2022-10-21T11:06:18.624Z,45.00
2022-10-21T11:07:18.673Z,39.38
2022-10-21T11:08:18.687Z,39.38
2022-10-21T11:09:18.813Z,39.38
2022-10-21T11:10:18.619Z,39.38
2022-10-21T11:11:19.640Z,39.38
2022-10-21T11:12:18.524Z,33.75
2022-10-21T11:13:18.517Z,33.75
2022-10-21T11:14:21.734Z,28.12
2022-10-21T11:15:18.506Z,28.12
2022-10-21T11:16:18.487Z,28.12
2022-10-21T11:17:18.467Z,22.50
2022-10-21T11:18:25.603Z,22.50
2022-10-21T11:19:19.451Z,16.88
2022-10-21T11:20:18.451Z,16.88
2022-10-21T11:21:18.421Z,16.88
2022-10-21T11:22:18.399Z,16.88
2022-10-21T11:23:18.388Z,16.88
2022-10-21T11:24:18.498Z,16.88
2022-10-21T11:25:18.396Z,16.88
2022-10-21T11:26:18.350Z,5.62
2022-10-21T11:27:19.242Z,0.00
2022-10-21T11:28:18.329Z,0.00
2022-10-21T11:29:18.311Z,5.62
2022-10-21T11:30:18.309Z,11.25
2022-10-21T11:31:18.288Z,22.50
2022-10-21T11:32:18.281Z,28.12
2022-10-21T11:33:18.260Z,22.50
2022-10-21T11:34:18.252Z,16.88
2022-10-21T11:35:18.247Z,11.25
2022-10-21T11:36:18.239Z,11.25
2022-10-21T11:37:18.212Z,16.88
2022-10-21T11:38:18.191Z,28.12
2022-10-21T11:39:21.357Z,45.00
2022-10-21T11:40:18.165Z,84.38
2022-10-21T11:41:19.833Z,106.88
2022-10-21T11:42:18.142Z,106.88
2022-10-21T11:43:18.126Z,106.88
2022-10-21T11:44:18.114Z,95.62
2022-10-21T11:45:18.112Z,90.00
2022-10-21T11:46:18.102Z,90.00
2022-10-21T11:47:18.077Z,84.38
2022-10-21T11:48:18.063Z,84.38
2022-10-21T11:49:18.088Z,84.38
2022-10-21T11:50:18.061Z,84.38
2022-10-21T11:51:18.072Z,84.38
2022-10-21T11:52:18.004Z,84.38
2022-10-21T11:53:18.017Z,84.38
2022-10-21T11:54:17.995Z,84.38
2022-10-21T11:55:17.997Z,78.75
2022-10-21T11:56:17.974Z,84.38
2022-10-21T11:57:18.051Z,84.38
2022-10-21T11:58:17.924Z,90.00
2022-10-21T11:59:17.948Z,95.62
2022-10-21T12:00:17.939Z,95.62
2022-10-21T12:01:17.905Z,101.25
2022-10-21T12:02:17.895Z,90.00
2022-10-21T12:03:17.875Z,78.75
2022-10-21T12:04:17.864Z,73.12
2022-10-21T12:05:18.854Z,78.75
2022-10-21T12:06:17.845Z,78.75
2022-10-21T12:07:17.831Z,67.50
2022-10-21T12:08:17.865Z,73.12
2022-10-21T12:09:17.799Z,78.75
2022-10-21T12:10:17.776Z,84.38
2022-10-21T12:11:17.801Z,101.25
2022-10-21T12:12:17.747Z,90.00
2022-10-21T12:13:17.739Z,78.75
2022-10-21T12:14:17.729Z,90.00
2022-10-21T12:15:17.744Z,90.00
2022-10-21T12:16:17.711Z,78.75
2022-10-21T12:17:17.690Z,84.38
2022-10-21T12:18:17.667Z,185.62
2022-10-21T12:19:17.670Z,196.88
2022-10-21T12:20:22.790Z,202.50
2022-10-21T12:21:18.716Z,219.38
2022-10-21T12:22:18.359Z,253.12
2022-10-21T12:23:17.715Z,213.75
2022-10-21T12:24:17.693Z,151.88
2022-10-21T12:25:17.700Z,95.62
2022-10-21T12:26:17.610Z,118.12
2022-10-21T12:27:17.595Z,382.50
2022-10-21T12:28:17.612Z,225.00
2022-10-21T12:29:17.602Z,213.75
2022-10-21T12:30:17.627Z,225.00
2022-10-21T12:31:17.557Z,174.38
2022-10-21T12:32:18.543Z,112.50
2022-10-21T12:33:17.486Z,84.38
2022-10-21T12:34:17.554Z,73.12
2022-10-21T12:35:17.562Z,67.50
2022-10-21T12:36:17.479Z,73.12
2022-10-21T12:37:17.453Z,73.12
2022-10-21T12:38:17.473Z,67.50
2022-10-21T12:39:17.479Z,73.12
2022-10-21T12:40:17.384Z,67.50
2022-10-21T12:41:17.393Z,73.12
2022-10-21T12:42:17.462Z,90.00
2022-10-21T12:43:17.407Z,90.00
2022-10-21T12:44:17.347Z,90.00
2022-10-21T12:45:17.422Z,90.00
2022-10-21T12:46:17.445Z,73.12
2022-10-21T12:47:17.332Z,56.25
2022-10-21T12:48:17.325Z,50.62
2022-10-21T12:49:17.295Z,45.00
2022-10-21T12:50:17.349Z,45.00
2022-10-21T12:51:17.346Z,50.62
2022-10-21T12:52:17.249Z,50.62
2022-10-21T12:53:17.256Z,45.00
2022-10-21T12:54:17.282Z,45.00
2022-10-21T12:55:17.424Z,45.00
2022-10-21T12:56:17.275Z,45.00
2022-10-21T12:57:17.196Z,50.62
2022-10-21T12:58:17.158Z,61.88
2022-10-21T12:59:17.222Z,90.00
2022-10-21T13:00:17.172Z,90.00
2022-10-21T13:01:17.273Z,95.62
2022-10-21T13:02:17.149Z,90.00
2022-10-21T13:03:17.117Z,118.12
2022-10-21T13:04:17.128Z,174.38
2022-10-21T13:05:17.157Z,376.88
2022-10-21T13:07:27.291Z,590.62
2022-10-21T13:08:27.289Z,826.88
2022-10-21T13:10:27.301Z,483.75
2022-10-21T13:11:27.231Z,405.00
2022-10-21T13:12:27.231Z,247.50
2022-10-21T13:13:27.203Z,315.00
2022-10-21T13:14:27.637Z,264.38
2022-10-21T13:15:27.233Z,196.88
2022-10-21T13:16:27.178Z,241.88
2022-10-21T13:17:27.195Z,253.12
2022-10-21T13:18:27.183Z,253.12
2022-10-21T13:19:27.115Z,247.50
2022-10-21T13:20:27.104Z,247.50
2022-10-21T13:21:27.094Z,253.12
2022-10-21T13:22:27.095Z,264.38
2022-10-21T13:23:27.084Z,315.00
2022-10-21T13:24:28.122Z,275.62
2022-10-21T13:25:27.106Z,258.75
2022-10-21T13:26:27.138Z,264.38
2022-10-21T13:27:27.073Z,247.50
2022-10-21T13:28:27.035Z,253.12
2022-10-21T13:29:27.047Z,225.00
2022-10-21T13:31:37.209Z,0.00
2022-10-21T13:32:37.643Z,0.00
2022-10-21T13:33:37.198Z,0.00
2022-10-21T13:34:41.591Z,0.00
2022-10-21T13:35:38.241Z,0.00
2022-10-21T13:36:39.219Z,0.00
2022-10-21T13:37:37.455Z,0.00
2022-10-21T13:38:37.254Z,0.00
2022-10-21T13:39:37.129Z,0.00
2022-10-21T13:40:37.139Z,0.00
2022-10-21T13:41:39.800Z,0.00
2022-10-21T13:42:37.090Z,0.00